Time;durP1;ratioP1;P1;durP2;ratioP2;P2;SDS_P1;SDS_P2;PMS_P1;PMS_P2;Temp;Humidity;BMP_temperature;BMP_pressure;BME280_temperature;BME280_humidity;BME280_pressure;Samples;Min_cycle;Max_cycle;Signal;HPM_P1;HPM_P2
2023/10/06 00:02:20;;;;;;;13.77;7.40;;;21.70;72.20;;;22.44;52.17;102282.06;3082167;46;20423;-82
2023/10/06 00:04:51;;;;;;;12.97;7.33;;;21.60;72.30;;;22.41;52.31;102271.78;3082188;46;21023;-82
2023/10/06 00:07:21;;;;;;;13.47;7.33;;;21.60;72.30;;;22.40;52.14;102270.13;3081530;46;21036;-82
2023/10/06 00:09:50;;;;;;;12.33;7.57;;;21.50;72.40;;;22.36;52.35;102278.81;3081798;46;20435;-82
2023/10/06 00:12:19;;;;;;;10.33;7.10;;;21.50;72.60;;;22.34;52.29;102268.31;3081395;46;20427;-83
2023/10/06 00:14:50;;;;;;;10.67;6.27;;;21.50;72.70;;;22.32;52.51;102264.19;3081256;46;20460;-82
2023/10/06 00:17:19;;;;;;;10.80;6.23;;;21.50;72.80;;;22.31;52.71;102266.06;3081342;46;21016;-82
2023/10/06 00:19:59;;;;;;;10.80;6.70;;;21.40;72.80;;;22.30;52.56;102269.75;3081152;46;20438;-82
2023/10/06 00:22:29;;;;;;;14.00;6.97;;;21.40;72.90;;;22.28;52.49;102274.53;3081849;46;21120;-82
2023/10/06 00:24:59;;;;;;;9.43;5.87;;;21.40;73.00;;;22.26;52.66;102273.91;3081475;46;21151;-83
2023/10/06 00:27:31;;;;;;;11.00;6.50;;;21.40;73.10;;;22.22;52.53;102267.34;3082375;46;20427;-83
2023/10/06 00:30:00;;;;;;;11.43;6.40;;;21.40;73.10;;;22.19;52.90;102273.97;3081316;46;20439;-82
2023/10/06 00:32:28;;;;;;;10.87;5.63;;;21.40;73.20;;;22.17;52.95;102264.47;3081003;46;20438;-82
2023/10/06 00:35:09;;;;;;;9.50;5.77;;;21.30;73.20;;;22.14;53.01;102259.53;3081558;46;21473;-82
2023/10/06 00:37:40;;;;;;;9.43;6.00;;;21.30;73.30;;;22.12;53.16;102256.25;3081205;46;21175;-82
2023/10/06 00:40:19;;;;;;;14.00;5.90;;;21.30;73.30;;;22.11;53.25;102255.41;3080581;46;20435;-83
2023/10/06 00:43:00;;;;;;;9.20;5.33;;;21.30;73.40;;;22.11;53.18;102259.94;3081603;46;20518;-82
2023/10/06 00:45:30;;;;;;;10.17;5.70;;;21.30;73.40;;;22.09;52.96;102259.34;3080879;46;20427;-82
2023/10/06 00:47:59;;;;;;;8.57;5.03;;;21.30;73.50;;;22.09;53.10;102262.03;3081867;46;20427;-82
2023/10/06 00:50:32;;;;;;;10.63;5.67;;;21.20;73.50;;;22.06;53.09;102251.75;3080523;46;20435;-82
2023/10/06 00:53:04;;;;;;;11.40;5.57;;;21.20;73.80;;;22.04;53.15;102253.78;3080911;46;20444;-82
2023/10/06 00:55:32;;;;;;;8.83;5.00;;;21.20;73.50;;;22.01;53.41;102255.03;3080901;46;20537;-82
2023/10/06 00:58:03;;;;;;;9.43;4.50;;;21.20;73.60;;;22.00;53.40;102253.41;3081748;46;20438;-82
2023/10/06 01:00:37;;;;;;;7.67;5.30;;;21.20;73.60;;;22.01;53.20;102260.41;3080677;46;20467;-82
2023/10/06 01:03:10;;;;;;;9.80;5.30;;;21.20;73.70;;;21.99;53.56;102258.97;3081173;46;20435;-83
2023/10/06 01:05:45;;;;;;;9.97;4.30;;;21.20;73.80;;;21.98;53.37;102249.28;3080855;46;20439;-82
2023/10/06 01:08:15;;;;;;;6.60;4.60;;;21.10;73.70;;;21.95;53.28;102252.38;3080783;46;20427;-83
2023/10/06 01:10:51;;;;;;;7.97;4.13;;;21.10;73.80;;;21.95;53.39;102249.69;3082022;46;20435;-82
2023/10/06 01:13:19;;;;;;;7.83;4.33;;;21.10;73.80;;;21.94;53.51;102248.06;3081028;46;20450;-82
2023/10/06 01:15:49;;;;;;;5.80;4.17;;;21.10;73.90;;;21.91;53.54;102243.94;3080568;46;20423;-82
2023/10/06 01:18:23;;;;;;;9.27;5.23;;;21.10;73.90;;;21.91;53.63;102249.31;3081436;46;20435;-82
2023/10/06 01:20:52;;;;;;;6.90;4.70;;;21.10;73.90;;;21.89;53.86;102245.19;3081450;46;20459;-82
2023/10/06 01:23:27;;;;;;;6.10;4.00;;;21.10;74.00;;;21.87;53.47;102247.28;3081189;46;20920;-82
2023/10/06 01:25:59;;;;;;;8.67;4.20;;;21.00;74.00;;;21.88;53.73;102259.63;3080286;46;20470;-83
2023/10/06 01:28:28;;;;;;;8.27;4.63;;;21.00;74.00;;;21.86;53.42;102257.16;3080719;46;20551;-83
2023/10/06 01:30:57;;;;;;;6.40;4.40;;;21.00;74.00;;;21.87;53.58;102253.44;3080328;46;20542;-83
2023/10/06 01:33:26;;;;;;;5.63;3.53;;;21.00;74.00;;;21.85;53.68;102246.63;3080369;46;20427;-82
2023/10/06 01:35:55;;;;;;;6.93;4.27;;;21.00;74.00;;;21.83;53.75;102240.63;3080707;46;20925;-83
2023/10/06 01:38:23;;;;;;;6.70;4.00;;;21.00;74.00;;;21.82;53.79;102247.84;3080107;46;21112;-82
2023/10/06 01:40:53;;;;;;;7.03;4.30;;;21.00;74.10;;;21.82;53.92;102233.66;3081123;46;20444;-82
2023/10/06 01:43:29;;;;;;;7.50;4.50;;;21.00;74.10;;;21.80;53.72;102230.34;3081764;46;20573;-82
2023/10/06 01:45:59;;;;;;;7.30;4.33;;;21.00;74.10;;;21.80;53.88;102225.00;3080714;46;20427;-81
2023/10/06 01:48:31;;;;;;;4.97;3.77;;;21.00;74.20;;;21.78;54.00;102219.00;3081535;46;20427;-83
2023/10/06 01:50:59;;;;;;;5.70;3.70;;;21.00;74.20;;;21.80;53.65;102219.63;3080711;46;20448;-82
2023/10/06 01:53:32;;;;;;;7.23;4.07;;;20.90;74.10;;;21.79;53.81;102207.25;3081106;46;20427;-82
2023/10/06 01:56:03;;;;;;;6.10;3.80;;;20.90;74.20;;;21.76;53.93;102203.13;3080836;46;20464;-82
2023/10/06 01:58:32;;;;;;;6.37;4.07;;;20.90;74.20;;;21.76;53.53;102197.78;3081769;46;20423;-82
2023/10/06 02:01:00;;;;;;;5.43;3.40;;;20.90;74.20;;;21.77;53.58;102198.59;3079732;46;20584;-82
2023/10/06 02:03:30;;;;;;;7.33;4.10;;;20.90;74.20;;;21.75;53.71;102201.47;3081713;46;20520;-82
2023/10/06 02:06:02;;;;;;;5.60;3.07;;;20.90;74.20;;;21.76;53.67;102194.25;3080902;46;20614;-82
2023/10/06 02:08:31;;;;;;;5.20;3.70;;;20.90;74.30;;;21.74;53.76;102188.28;3080882;46;20423;-83
2023/10/06 02:11:01;;;;;;;4.97;3.53;;;20.90;74.40;;;21.75;53.69;102184.59;3080586;46;20482;-82
2023/10/06 02:13:30;;;;;;;5.73;3.33;;;20.90;74.40;;;21.71;53.68;102183.34;3080262;46;20431;-83
2023/10/06 02:16:03;;;;;;;5.33;3.43;;;20.80;74.40;;;21.70;54.01;102190.59;3079719;46;20792;-81
2023/10/06 02:18:37;;;;;;;7.00;3.17;;;20.80;74.40;;;21.69;54.13;102180.88;3079913;46;20430;-82
2023/10/06 02:21:09;;;;;;;4.30;3.17;;;20.80;74.40;;;21.69;54.05;102177.38;3080766;46;20435;-82
2023/10/06 02:23:40;;;;;;;5.33;3.80;;;20.80;74.40;;;21.68;53.76;102179.22;3080414;46;21015;-82
2023/10/06 02:26:10;;;;;;;5.80;3.27;;;20.80;74.40;;;21.68;53.63;102168.50;3079597;46;20426;-82
2023/10/06 02:28:48;;;;;;;6.07;3.30;;;20.80;74.50;;;21.67;54.00;102171.41;3080277;46;20439;-82
2023/10/06 02:31:23;;;;;;;6.13;3.10;;;20.80;74.50;;;21.68;53.83;102178.44;3080005;46;21051;-82
2023/10/06 02:33:53;;;;;;;3.63;2.90;;;20.80;74.70;;;21.68;53.99;102178.44;3079570;46;20549;-82
2023/10/06 02:36:21;;;;;;;3.13;2.60;;;20.70;74.50;;;21.65;54.06;102166.28;3079462;46;20439;-83
2023/10/06 02:38:51;;;;;;;4.53;2.83;;;20.70;74.50;;;21.64;54.11;102166.47;3081121;46;20576;-82
2023/10/06 02:41:28;;;;;;;5.37;3.50;;;20.70;74.60;;;21.62;54.06;102166.69;3079781;46;20440;-82
2023/10/06 02:44:05;;;;;;;4.03;2.80;;;20.70;74.70;;;21.63;54.18;102171.03;3080773;46;21062;-82
2023/10/06 02:46:36;;;;;;;4.67;2.90;;;20.70;74.70;;;21.65;53.96;102168.13;3080108;46;20993;-82
2023/10/06 02:49:08;;;;;;;5.40;2.83;;;20.70;74.70;;;21.64;54.19;102161.09;3079944;46;20640;-83
2023/10/06 02:51:49;;;;;;;4.23;2.70;;;20.70;74.80;;;21.62;53.85;102171.22;3080468;46;20451;-83
2023/10/06 02:56:50;;;;;;;4.97;2.80;;;20.70;74.80;;;21.62;53.84;102165.84;3079785;46;20459;-82
2023/10/06 02:59:22;;;;;;;3.73;2.70;;;20.70;74.80;;;21.62;54.02;102163.19;3080383;46;20443;-82
2023/10/06 03:02:00;;;;;;;4.17;3.00;;;20.70;74.80;;;21.58;54.12;102155.56;3080637;46;20423;-82
2023/10/06 03:04:28;;;;;;;4.73;2.70;;;20.70;74.90;;;21.62;53.71;102163.19;3079839;46;20525;-83
2023/10/06 03:07:00;;;;;;;4.57;3.20;;;20.70;74.90;;;21.62;53.87;102160.50;3080264;46;20423;-82
2023/10/06 03:09:43;;;;;;;4.17;2.50;;;20.70;74.90;;;21.59;53.85;102151.03;3079551;46;20439;-82
2023/10/06 03:12:20;;;;;;;5.30;2.77;;;20.70;74.90;;;21.58;54.18;102147.50;3080258;46;20436;-83
2023/10/06 03:14:54;;;;;;;3.90;3.03;;;20.70;74.90;;;21.59;53.71;102138.44;3079352;46;20427;-82
2023/10/06 03:17:23;;;;;;;3.83;2.40;;;20.70;74.90;;;21.59;54.15;102145.66;3080375;46;20423;-82
2023/10/06 03:22:40;;;;;;;3.13;1.97;;;20.70;74.90;;;21.59;54.05;102148.34;3082772;46;20561;-82
2023/10/06 03:25:16;;;;;;;3.17;2.00;;;20.60;74.80;;;21.59;53.87;102159.06;3082147;46;20519;-82
2023/10/06 03:27:45;;;;;;;3.87;2.43;;;20.60;74.80;;;21.56;53.83;102149.59;3081902;46;21087;-82
2023/10/06 03:30:34;;;;;;;4.23;2.67;;;20.70;74.90;;;21.55;54.17;102152.50;3081852;46;20463;-82
2023/10/06 03:33:03;;;;;;;3.80;2.50;;;20.60;74.90;;;21.56;53.99;102144.22;3082397;46;20427;-82
2023/10/06 03:35:45;;;;;;;2.83;2.53;;;20.60;74.90;;;21.56;53.91;102141.56;3081780;46;20435;-82
2023/10/06 03:40:53;;;;;;;3.60;2.63;;;20.60;74.90;;;21.55;53.78;102155.16;3082022;46;20426;-82
2023/10/06 03:43:35;;;;;;;2.70;2.10;;;20.60;74.90;;;21.55;53.95;102147.97;3081877;46;20423;-83
2023/10/06 03:46:03;;;;;;;2.20;2.00;;;20.60;74.90;;;21.55;53.91;102147.97;3082155;46;20435;-82
2023/10/06 03:48:32;;;;;;;3.73;2.20;;;20.60;74.90;;;21.54;53.85;102146.31;3081702;46;20426;-83
2023/10/06 03:51:00;;;;;;;3.00;2.13;;;20.60;74.90;;;21.56;54.06;102133.50;3082558;46;20426;-82
2023/10/06 03:53:29;;;;;;;3.00;2.10;;;20.60;74.90;;;21.54;53.68;102124.03;3081356;46;20442;-82
2023/10/06 03:55:58;;;;;;;4.27;2.27;;;20.60;74.80;;;21.55;53.89;102125.69;3082309;46;20506;-82
2023/10/06 03:58:31;;;;;;;2.30;2.00;;;20.60;74.90;;;21.54;54.17;102138.25;3081629;46;20579;-82
2023/10/06 04:01:07;;;;;;;2.90;2.30;;;20.60;75.70;;;21.55;54.11;102128.38;3082440;46;21139;-82
2023/10/06 04:03:36;;;;;;;2.93;2.03;;;20.60;74.90;;;21.53;54.09;102123.25;3081396;46;20443;-82
2023/10/06 04:06:05;;;;;;;2.53;2.07;;;20.60;74.90;;;21.52;53.97;102113.53;3081758;46;20427;-83
2023/10/06 04:08:34;;;;;;;3.10;2.33;;;20.60;74.90;;;21.51;54.15;102111.88;3081655;46;21078;-82
2023/10/06 04:11:04;;;;;;;2.63;2.30;;;20.60;74.80;;;21.53;54.29;102107.16;3081513;46;20504;-82
2023/10/06 04:13:33;;;;;;;2.57;2.33;;;20.60;74.80;;;21.52;53.99;102105.50;3081483;46;20430;-82
2023/10/06 04:16:02;;;;;;;2.83;2.00;;;20.60;74.90;;;21.52;53.90;102096.63;3081341;46;20415;-82
2023/10/06 04:18:32;;;;;;;3.10;2.10;;;20.60;74.80;;;21.50;54.03;102102.22;3081642;46;21116;-82
2023/10/06 04:21:03;;;;;;;3.40;2.23;;;20.60;74.90;;;21.50;54.23;102102.22;3081356;46;20427;-82
2023/10/06 04:23:31;;;;;;;4.27;2.47;;;20.60;74.90;;;21.50;53.88;102102.22;3081532;46;20428;-83
2023/10/06 04:26:01;;;;;;;3.03;2.20;;;20.60;74.80;;;21.51;54.23;102098.47;3081231;46;20448;-82
2023/10/06 04:28:29;;;;;;;2.70;2.00;;;20.60;74.80;;;21.50;53.95;102104.91;3082453;46;20468;-82
2023/10/06 04:31:00;;;;;;;3.13;2.13;;;20.60;74.80;;;21.49;53.98;102097.88;3080930;46;20512;-82
2023/10/06 04:33:29;;;;;;;3.17;2.00;;;20.60;74.80;;;21.50;53.91;102104.91;3081684;46;20427;-82
2023/10/06 04:36:11;;;;;;;2.30;2.00;;;20.60;74.80;;;21.50;54.28;102094.19;3081701;46;20415;-82
2023/10/06 04:38:40;;;;;;;2.03;1.60;;;20.60;74.90;;;21.49;54.01;102089.00;3081625;46;20443;-82
2023/10/06 04:41:10;;;;;;;2.80;2.20;;;20.60;74.80;;;21.47;54.19;102081.19;3080484;46;20427;-83
2023/10/06 04:43:44;;;;;;;2.40;1.80;;;20.60;74.90;;;21.47;54.25;102086.56;3082075;46;20459;-82
2023/10/06 04:46:14;;;;;;;2.50;2.00;;;20.60;74.90;;;21.47;54.32;102091.91;3081962;46;21102;-82
2023/10/06 04:48:42;;;;;;;3.17;2.03;;;20.60;74.90;;;21.49;54.25;102087.16;3081507;46;20569;-82
2023/10/06 04:51:12;;;;;;;2.27;1.93;;;20.60;74.90;;;21.48;54.25;102088.22;3081567;46;21130;-82
2023/10/06 04:53:40;;;;;;;3.67;1.90;;;20.60;74.90;;;21.47;54.05;102083.88;3082234;46;20423;-82
2023/10/06 04:56:09;;;;;;;3.17;1.90;;;20.60;74.90;;;21.46;54.10;102073.38;3081874;46;20530;-82
2023/10/06 04:58:38;;;;;;;1.97;1.60;;;20.60;75.00;;;21.46;54.29;102074.22;3082168;46;20459;-83
2023/10/06 05:01:07;;;;;;;2.00;1.80;;;20.60;74.90;;;21.46;54.29;102089.47;3081013;46;20456;-82
2023/10/06 05:03:45;;;;;;;2.33;1.90;;;20.50;74.80;;;21.46;54.43;102087.59;3081120;46;20471;-82
2023/10/06 05:06:16;;;;;;;3.20;2.10;;;20.60;75.00;;;21.45;54.40;102077.91;3081985;46;20452;-82
2023/10/06 05:08:47;;;;;;;3.17;1.90;;;20.60;75.00;;;21.44;54.06;102059.38;3080996;46;21132;-82
2023/10/06 05:11:18;;;;;;;3.83;2.00;;;20.60;75.00;;;21.43;54.35;102055.88;3080436;46;20585;-82
2023/10/06 05:13:52;;;;;;;1.50;1.40;;;20.60;75.00;;;21.44;53.99;102054.81;3082212;46;21063;-83
2023/10/06 05:16:22;;;;;;;3.63;2.10;;;20.60;75.00;;;21.44;54.38;102049.47;3080404;46;20530;-83
2023/10/06 05:18:53;;;;;;;1.70;1.60;;;20.60;75.00;;;21.43;54.32;102042.47;3080762;46;20581;-83
2023/10/06 05:21:21;;;;;;;2.00;1.70;;;20.60;75.00;;;21.43;54.30;102045.16;3081446;46;20451;-82
2023/10/06 05:23:50;;;;;;;2.93;2.10;;;20.60;75.00;;;21.42;53.95;102032.78;3080704;46;20435;-82
2023/10/06 05:26:20;;;;;;;2.27;2.00;;;20.60;75.00;;;21.44;54.06;102037.94;3081272;46;20478;-83
2023/10/06 05:28:50;;;;;;;2.07;1.87;;;20.60;74.90;;;21.42;54.51;102035.47;3081477;46;20489;-82
2023/10/06 05:31:19;;;;;;;2.30;1.80;;;20.60;75.00;;;21.42;54.54;102046.19;3081113;46;20427;-82
2023/10/06 05:33:47;;;;;;;2.17;1.70;;;20.60;74.90;;;21.42;54.11;102040.81;3080813;46;20561;-83
2023/10/06 05:36:15;;;;;;;3.00;2.03;;;20.60;74.90;;;21.42;54.20;102056.91;3080246;46;20569;-82
2023/10/06 05:38:47;;;;;;;2.47;1.90;;;20.60;74.90;;;21.44;54.42;102054.03;3080621;46;20459;-82
2023/10/06 05:41:16;;;;;;;1.83;1.70;;;20.60;74.90;;;21.42;54.42;102038.13;3079662;46;20459;-82
2023/10/06 05:43:44;;;;;;;2.07;1.60;;;20.60;74.90;;;21.42;54.52;102040.00;3081267;46;21143;-82
2023/10/06 05:46:13;;;;;;;2.33;1.87;;;20.60;74.80;;;21.43;54.17;102025.56;3080801;46;20423;-82
2023/10/06 05:48:42;;;;;;;2.70;2.03;;;20.60;74.80;;;21.43;53.96;102033.59;3081289;46;20438;-82
2023/10/06 05:51:14;;;;;;;3.43;2.07;;;20.60;74.80;;;21.43;54.09;102037.13;3080838;46;20496;-82
2023/10/06 05:53:43;;;;;;;2.40;1.70;;;20.60;74.80;;;21.40;54.19;102053.63;3080739;46;20451;-82
2023/10/06 05:56:12;;;;;;;2.10;1.70;;;20.60;74.80;;;21.40;54.32;102048.25;3080887;46;20521;-83
2023/10/06 05:58:40;;;;;;;1.80;1.50;;;20.60;74.70;;;21.40;54.33;102050.94;3079983;46;20455;-83
2023/10/06 06:01:18;;;;;;;2.07;1.90;;;20.60;74.70;;;21.42;53.93;102029.28;3079657;46;20426;-82
2023/10/06 06:03:47;;;;;;;2.17;1.70;;;20.60;74.80;;;21.40;54.36;102026.81;3080591;46;20501;-82
2023/10/06 06:06:21;;;;;;;2.10;1.57;;;20.60;74.70;;;21.40;54.06;102026.81;3080106;46;20597;-83
2023/10/06 06:08:55;;;;;;;2.07;1.80;;;20.60;74.70;;;21.40;54.39;102021.47;3081285;46;20519;-83
2023/10/06 06:11:24;;;;;;;2.87;1.67;;;20.60;74.70;;;21.40;54.12;102021.47;3080139;46;21120;-82
2023/10/06 06:13:56;;;;;;;2.23;1.43;;;20.60;74.60;;;21.40;54.42;102016.09;3080349;46;20423;-82
2023/10/06 06:16:44;;;;;;;1.77;1.43;;;20.60;74.60;;;21.42;54.44;102014.03;3080401;46;20427;-83
2023/10/06 06:19:14;;;;;;;2.40;1.93;;;20.60;74.60;;;21.41;54.28;102016.94;3080132;46;20564;-82
2023/10/06 06:21:42;;;;;;;2.10;1.57;;;20.60;74.60;;;21.42;54.33;102014.03;3079640;46;20427;-82
2023/10/06 06:24:11;;;;;;;1.80;1.70;;;20.60;74.60;;;21.41;54.08;102019.59;3079647;46;20460;-83
2023/10/06 06:26:39;;;;;;;2.03;1.50;;;20.60;74.60;;;21.40;54.24;102002.72;3079968;46;20435;-81
2023/10/06 06:29:08;;;;;;;2.20;1.60;;;20.70;74.60;;;21.41;54.25;102012.41;3079108;46;20507;-82
2023/10/06 06:31:37;;;;;;;1.87;1.60;;;20.70;74.50;;;21.41;54.09;102023.13;3080388;46;20474;-83
2023/10/06 06:34:06;;;;;;;1.87;1.50;;;20.70;74.50;;;21.41;54.08;102015.06;3081065;46;20501;-83
2023/10/06 06:36:35;;;;;;;2.27;1.90;;;20.70;74.50;;;21.42;54.55;102015.88;3080482;46;20451;-83
2023/10/06 06:39:04;;;;;;;10.67;2.30;;;20.70;74.60;;;21.43;54.82;102020.22;3078754;46;21031;-83
2023/10/06 06:41:33;;;;;;;5.67;1.57;;;20.70;74.70;;;21.51;55.39;102012.72;3079240;46;20423;-81
2023/10/06 06:44:01;;;;;;;3.43;2.07;;;20.70;75.60;;;21.58;55.69;102013.50;3079168;46;21149;-82
2023/10/06 06:46:30;;;;;;;6.30;2.10;;;20.70;76.20;;;21.65;56.14;102012.66;3078431;46;20423;-81
2023/10/06 06:49:02;;;;;;;4.73;2.33;;;20.80;76.90;;;21.73;56.25;102025.81;3078775;46;20446;-81
2023/10/06 06:51:31;;;;;;;4.57;1.70;;;20.90;77.20;;;21.75;55.83;102029.09;3078658;46;20423;-79
2023/10/06 06:53:59;;;;;;;5.93;2.43;;;20.90;77.10;;;21.73;55.77;102036.53;3080517;46;20426;-80
2023/10/06 06:56:28;;;;;;;4.33;2.37;;;20.90;76.80;;;21.70;55.52;102015.53;3081899;46;20463;-80
2023/10/06 06:59:01;;;;;;;11.17;2.30;;;20.90;76.60;;;21.68;55.50;102010.34;3082242;46;20492;-80
2023/10/06 07:01:30;;;;;;;4.30;2.17;;;20.90;76.50;;;21.66;55.16;102009.75;3081967;46;20572;-80
2023/10/06 07:04:00;;;;;;;13.40;3.27;;;20.80;76.20;;;21.65;55.53;102007.31;3082398;46;21149;-80
2023/10/06 07:06:30;;;;;;;4.87;2.10;;;20.80;76.20;;;21.64;55.38;102000.28;3081653;46;20502;-81
2023/10/06 07:08:59;;;;;;;5.63;2.20;;;20.80;76.20;;;21.63;55.35;101999.50;3081606;46;20438;-80
2023/10/06 07:11:28;;;;;;;5.70;2.30;;;20.80;76.20;;;21.62;55.25;101999.69;3080981;46;20435;-80
2023/10/06 07:13:56;;;;;;;4.53;2.23;;;20.70;76.10;;;21.60;55.48;101997.22;3081648;46;20422;-80
2023/10/06 07:16:25;;;;;;;5.93;2.27;;;20.80;76.20;;;21.61;55.36;102000.75;3081720;46;20438;-80
2023/10/06 07:18:54;;;;;;;7.40;2.40;;;20.70;76.20;;;21.62;55.11;101999.69;3081457;46;20439;-80
2023/10/06 07:21:22;;;;;;;3.03;1.70;;;20.70;76.20;;;21.59;55.21;101996.41;3081630;46;20423;-80
2023/10/06 07:23:54;;;;;;;5.63;2.60;;;20.70;76.20;;;21.59;55.09;101993.72;3081918;46;20451;-80
2023/10/06 07:26:23;;;;;;;5.13;2.60;;;20.70;76.30;;;21.59;55.00;101984.84;3081809;46;20426;-80
2023/10/06 07:28:56;;;;;;;5.47;2.07;;;20.70;76.30;;;21.58;55.06;101986.72;3082018;46;20434;-80
2023/10/06 07:31:25;;;;;;;4.50;2.20;;;20.70;76.30;;;21.59;54.97;101993.72;3082025;46;20537;-80
2023/10/06 07:33:55;;;;;;;6.20;2.07;;;20.70;76.30;;;21.58;55.47;101985.91;3080976;46;20431;-80
2023/10/06 07:36:24;;;;;;;2.70;2.03;;;20.70;76.30;;;21.59;55.19;101983.00;3081230;46;20423;-79
2023/10/06 07:38:52;;;;;;;5.13;2.10;;;20.70;76.30;;;21.57;55.30;101982.41;3080598;46;21116;-80
2023/10/06 07:41:23;;;;;;;4.10;2.07;;;20.70;76.30;;;21.57;55.25;101985.09;3081236;46;20426;-80
2023/10/06 07:43:53;;;;;;;6.10;2.10;;;20.70;76.40;;;21.57;55.20;101974.38;3081477;46;21104;-80
2023/10/06 07:46:22;;;;;;;4.10;1.90;;;20.70;76.20;;;21.59;54.97;101971.47;3081241;46;20556;-80
2023/10/06 07:48:51;;;;;;;2.60;1.90;;;20.70;76.20;;;21.58;55.16;101978.66;3081591;46;20439;-80
2023/10/06 07:51:19;;;;;;;4.77;2.10;;;20.70;76.20;;;21.58;55.26;101981.34;3081497;46;20426;-80
2023/10/06 07:53:48;;;;;;;3.10;1.77;;;20.70;76.20;;;21.57;55.01;101985.09;3081671;46;20427;-80
2023/10/06 07:56:18;;;;;;;4.67;2.23;;;20.70;76.20;;;21.57;55.19;101985.09;3080635;46;20434;-80
2023/10/06 07:58:47;;;;;;;3.97;1.70;;;20.70;76.10;;;21.59;54.70;101982.19;3080758;46;20564;-83
2023/10/06 08:01:19;;;;;;;4.47;2.60;;;20.70;76.10;;;21.59;55.05;101982.19;3080613;46;20447;-80
2023/10/06 08:03:48;;;;;;;4.63;1.90;;;20.70;76.00;;;21.59;55.31;101987.53;3081874;46;20494;-79
2023/10/06 08:06:17;;;;;;;4.50;2.10;;;20.70;76.00;;;21.61;55.05;101984.66;3080692;46;20423;-80
2023/10/06 08:08:45;;;;;;;4.10;1.83;;;20.70;75.90;;;21.59;55.13;101977.66;3081072;46;20452;-80
2023/10/06 08:11:13;;;;;;;3.93;1.83;;;20.70;75.90;;;21.59;55.13;101993.72;3080926;46;20451;-81
2023/10/06 08:13:42;;;;;;;1.63;1.50;;;20.80;76.00;;;21.59;55.06;101993.72;3081495;46;20513;-80
2023/10/06 08:16:12;;;;;;;4.50;2.10;;;20.70;75.90;;;21.58;55.18;101992.06;3081758;46;20523;-82
2023/10/06 08:18:41;;;;;;;4.33;2.03;;;20.70;75.90;;;21.58;55.29;101980.56;3081323;46;20434;-81
2023/10/06 08:21:10;;;;;;;14.00;2.90;;;20.80;76.00;;;21.63;55.41;101977.22;3079860;46;20717;-83
2023/10/06 08:23:39;;;;;;;5.33;2.03;;;20.80;76.20;;;21.76;55.46;101982.47;3037422;43;1008318;-82
2023/10/06 08:26:08;;;;;;;5.43;2.07;;;20.80;76.60;;;21.85;55.30;101971.28;3081476;46;20423;-83
2023/10/06 08:28:37;;;;;;;3.33;1.73;;;20.90;76.80;;;21.93;55.25;101970.22;3081327;46;20427;-82
2023/10/06 08:31:14;;;;;;;2.93;1.60;;;21.00;76.90;;;22.01;55.07;101975.31;3079893;46;21017;-82
2023/10/06 08:33:45;;;;;;;7.47;2.10;;;21.00;76.90;;;22.09;54.82;101969.66;3081331;46;20451;-82
2023/10/06 08:36:14;;;;;;;4.13;2.00;;;21.10;76.80;;;22.15;54.58;101966.09;3080302;46;20423;-82
2023/10/06 08:38:46;;;;;;;3.43;1.57;;;21.20;76.70;;;22.21;54.30;101975.94;3083694;43;21059;-81
2023/10/06 08:41:26;;;;;;;3.87;2.03;;;21.30;76.60;;;22.27;54.41;101980.44;3080695;46;20419;-80
2023/10/06 08:44:02;;;;;;;4.53;1.93;;;21.40;76.40;;;22.33;54.30;101978.72;3080481;46;20423;-81
2023/10/06 08:46:34;;;;;;;5.20;2.27;;;21.50;76.10;;;22.36;54.00;101979.09;3081049;46;20483;-82
2023/10/06 08:49:05;;;;;;;5.07;2.00;;;21.60;75.90;;;22.39;53.85;101973.31;3081005;46;20659;-81
2023/10/06 08:51:35;;;;;;;4.13;2.10;;;21.60;75.60;;;22.40;53.68;101969.56;3080897;46;20922;-81
2023/10/06 08:54:13;;;;;;;3.10;1.90;;;21.70;75.30;;;22.44;53.68;101970.75;3081968;43;204853;-80
2023/10/06 08:56:41;;;;;;;3.03;1.97;;;21.80;75.10;;;22.47;53.65;101969.50;3084919;43;47047;-81
2023/10/06 08:59:15;;;;;;;5.30;2.10;;;21.80;74.80;;;22.51;53.52;101968.81;3081065;46;20522;-82
2023/10/06 09:01:43;;;;;;;4.93;2.10;;;21.90;74.60;;;22.55;53.21;101975.41;3081769;43;196884;-80
2023/10/06 09:04:12;;;;;;;4.47;2.30;;;21.90;74.20;;;22.58;52.92;101982.97;3080503;46;20518;-82
2023/10/06 09:07:14;;;;;;;4.77;2.20;;;22.00;74.10;;;22.60;53.21;101980.94;3080096;46;20447;-82
2023/10/06 09:09:43;;;;;;;3.33;2.50;;;22.00;73.90;;;22.62;52.94;101978.88;3116290;43;206744;-81
2023/10/06 09:12:35;;;;;;;5.00;2.10;;;22.10;73.70;;;22.65;53.23;101981.09;3098050;43;196341;-81
2023/10/06 09:15:04;;;;;;;2.80;1.77;;;22.10;73.40;;;22.70;52.82;101980.44;3079103;43;200553;-82
2023/10/06 09:17:35;;;;;;;2.50;2.07;;;22.20;73.40;;;22.73;52.25;101974.59;3079481;46;20474;-82
2023/10/06 09:20:07;;;;;;;5.33;2.00;;;22.20;73.20;;;22.78;52.77;101972.88;3078464;46;20526;-82
2023/10/06 09:22:55;;;;;;;3.03;2.10;;;22.20;73.20;;;22.84;52.51;101966.59;3080612;46;20493;-82
2023/10/06 09:25:24;;;;;;;4.60;2.23;;;22.20;72.90;;;22.85;52.68;101978.19;3078482;46;20435;-81
2023/10/06 09:28:04;;;;;;;4.67;2.57;;;22.30;72.90;;;22.85;52.45;101962.88;3079715;46;20423;-81
2023/10/06 09:30:57;;;;;;;3.43;2.00;;;22.30;72.80;;;22.90;52.06;101965.72;3079933;46;20503;-83
2023/10/06 09:33:43;;;;;;;3.93;2.27;;;22.30;72.70;;;22.94;52.22;101970.66;3079851;46;20431;-82
2023/10/06 09:36:17;;;;;;;4.07;2.17;;;22.30;73.20;;;22.89;52.06;101969.44;3079718;46;21074;-80
2023/10/06 09:39:03;;;;;;;4.33;2.30;;;22.40;73.30;;;22.93;52.24;101972.50;3080481;46;20580;-80
2023/10/06 09:41:34;;;;;;;3.67;1.90;;;22.40;72.40;;;22.92;52.19;101967.38;3078918;46;20428;-81
2023/10/06 09:44:11;;;;;;;2.77;1.87;;;22.40;72.20;;;22.90;51.92;101954.97;3080847;46;20423;-81
2023/10/06 09:46:44;;;;;;;4.00;2.00;;;22.50;72.10;;;22.92;52.29;101956.63;3080470;46;20458;-80
2023/10/06 09:49:18;;;;;;;2.90;1.97;;;22.50;72.10;;;22.90;52.40;101949.59;3080106;46;20583;-81
2023/10/06 09:51:47;;;;;;;4.73;1.97;;;22.50;71.90;;;22.92;52.25;101951.25;3080547;46;21031;-81
2023/10/06 09:54:16;;;;;;;4.53;2.10;;;22.50;71.70;;;22.92;52.02;101940.50;3082046;43;28003;-81
2023/10/06 09:56:46;;;;;;;3.30;2.20;;;22.50;71.90;;;22.89;52.26;101947.94;3079396;46;20976;-81
2023/10/06 09:59:17;;;;;;;8.27;2.53;;;22.50;71.40;;;22.84;52.01;101945.13;3077816;46;20478;-81
2023/10/06 10:01:46;;;;;;;3.23;2.10;;;22.40;71.10;;;22.78;52.04;101940.66;3077200;46;20554;-81
2023/10/06 10:04:16;;;;;;;2.23;1.83;;;22.40;71.10;;;22.77;52.04;101943.59;3079265;46;20548;-81
2023/10/06 10:06:44;;;;;;;4.17;2.20;;;22.30;71.20;;;22.72;52.26;101952.31;3078088;46;20676;-81
2023/10/06 10:09:17;;;;;;;2.27;1.77;;;22.30;71.30;;;22.69;52.33;101952.75;3079080;46;20540;-81
2023/10/06 10:12:24;;;;;;;3.07;2.30;;;22.20;71.40;;;22.68;52.42;101953.78;3078832;46;20439;-80
2023/10/06 10:15:12;;;;;;;2.93;2.00;;;22.10;71.50;;;22.64;52.36;101949.09;3080029;46;20468;-81
2023/10/06 10:18:06;;;;;;;2.87;2.10;;;22.00;71.60;;;22.59;52.02;101947.06;3081476;46;20423;-81
2023/10/06 10:20:36;;;;;;;3.30;2.10;;;22.00;71.90;;;22.56;52.44;101952.88;3078850;46;20506;-81
2023/10/06 10:23:06;;;;;;;3.67;2.67;;;21.90;72.00;;;22.54;52.70;101944.22;3079724;46;20427;-81
2023/10/06 10:25:36;;;;;;;3.60;2.20;;;21.90;72.20;;;22.52;52.77;101940.94;3079828;46;20434;-81
2023/10/06 10:28:17;;;;;;;3.60;2.03;;;21.90;72.30;;;22.48;52.82;101931.72;3080280;46;20430;-80
2023/10/06 10:31:01;;;;;;;3.33;2.00;;;21.80;72.40;;;22.44;52.42;101938.53;3079277;46;21176;-81
2023/10/06 10:33:37;;;;;;;4.37;2.23;;;21.80;72.50;;;22.44;52.64;101930.50;3079066;46;20451;-81
2023/10/06 10:36:15;;;;;;;5.60;2.37;;;21.70;72.60;;;22.40;52.72;101937.34;3080028;46;21059;-81
2023/10/06 10:38:45;;;;;;;5.13;2.63;;;21.70;72.80;;;22.40;53.00;101929.31;3079269;46;20463;-81
2023/10/06 10:41:17;;;;;;;2.80;2.17;;;21.70;72.90;;;22.37;53.05;101920.91;3078760;46;20457;-81